sensor_id;sensor_type;location;lat;lon;timestamp;P1;durP1;ratioP1;P2;durP2;ratioP2
19312;SDS011;9791;50.820;4.406;2023-04-01T00:00:45;6.70;;;2.58;;
19312;SDS011;9791;50.820;4.406;2023-04-01T00:03:11;9.75;;;2.65;;
19312;SDS011;9791;50.820;4.406;2023-04-01T00:05:37;8.98;;;1.80;;
19312;SDS011;9791;50.820;4.406;2023-04-01T00:08:03;9.02;;;2.10;;
19312;SDS011;9791;50.820;4.406;2023-04-01T00:10:29;8.73;;;2.05;;
19312;SDS011;9791;50.820;4.406;2023-04-01T00:12:55;8.70;;;2.13;;
19312;SDS011;9791;50.820;4.406;2023-04-01T00:15:21;8.70;;;2.85;;
19312;SDS011;9791;50.820;4.406;2023-04-01T00:17:47;8.45;;;1.90;;
19312;SDS011;9791;50.820;4.406;2023-04-01T00:20:14;8.90;;;2.65;;
19312;SDS011;9791;50.820;4.406;2023-04-01T00:22:40;7.65;;;1.90;;
19312;SDS011;9791;50.820;4.406;2023-04-01T00:25:08;9.32;;;1.90;;
19312;SDS011;9791;50.820;4.406;2023-04-01T00:27:34;9.38;;;2.20;;
19312;SDS011;9791;50.820;4.406;2023-04-01T00:30:00;8.07;;;2.00;;
19312;SDS011;9791;50.820;4.406;2023-04-01T00:32:28;8.15;;;2.30;;
19312;SDS011;9791;50.820;4.406;2023-04-01T00:34:56;8.20;;;1.70;;
19312;SDS011;9791;50.820;4.406;2023-04-01T00:37:24;9.50;;;2.20;;
19312;SDS011;9791;50.820;4.406;2023-04-01T00:39:50;7.25;;;2.10;;
19312;SDS011;9791;50.820;4.406;2023-04-01T00:42:16;7.45;;;1.67;;
19312;SDS011;9791;50.820;4.406;2023-04-01T00:44:44;7.18;;;1.73;;
19312;SDS011;9791;50.820;4.406;2023-04-01T00:47:10;7.75;;;1.98;;
19312;SDS011;9791;50.820;4.406;2023-04-01T00:49:38;9.43;;;1.95;;
19312;SDS011;9791;50.820;4.406;2023-04-01T00:52:05;6.28;;;2.08;;
19312;SDS011;9791;50.820;4.406;2023-04-01T00:54:32;8.43;;;1.92;;
19312;SDS011;9791;50.820;4.406;2023-04-01T00:59:37;6.22;;;1.80;;
19312;SDS011;9791;50.820;4.406;2023-04-01T01:02:05;5.95;;;1.90;;
19312;SDS011;9791;50.820;4.406;2023-04-01T01:04:33;4.25;;;1.60;;
19312;SDS011;9791;50.820;4.406;2023-04-01T01:07:19;5.13;;;1.95;;
19312;SDS011;9791;50.820;4.406;2023-04-01T01:09:51;6.15;;;1.95;;
19312;SDS011;9791;50.820;4.406;2023-04-01T01:12:31;7.82;;;1.80;;
19312;SDS011;9791;50.820;4.406;2023-04-01T01:15:20;4.03;;;1.75;;
19312;SDS011;9791;50.820;4.406;2023-04-01T01:17:57;4.13;;;1.42;;
19312;SDS011;9791;50.820;4.406;2023-04-01T01:31:23;3.60;;;1.80;;
19312;SDS011;9791;50.820;4.406;2023-04-01T01:36:40;3.35;;;1.60;;
19312;SDS011;9791;50.820;4.406;2023-04-01T01:39:10;4.28;;;1.90;;
19312;SDS011;9791;50.820;4.406;2023-04-01T01:41:36;6.13;;;1.80;;
19312;SDS011;9791;50.820;4.406;2023-04-01T01:44:04;4.85;;;1.75;;
19312;SDS011;9791;50.820;4.406;2023-04-01T01:46:32;4.43;;;1.73;;
19312;SDS011;9791;50.820;4.406;2023-04-01T01:48:59;6.05;;;1.83;;
19312;SDS011;9791;50.820;4.406;2023-04-01T01:51:26;5.22;;;1.85;;
19312;SDS011;9791;50.820;4.406;2023-04-01T01:53:53;6.30;;;2.00;;
19312;SDS011;9791;50.820;4.406;2023-04-01T01:56:20;5.65;;;2.17;;
19312;SDS011;9791;50.820;4.406;2023-04-01T01:58:48;5.30;;;2.38;;
19312;SDS011;9791;50.820;4.406;2023-04-01T02:01:16;6.93;;;2.33;;
19312;SDS011;9791;50.820;4.406;2023-04-01T02:03:43;5.55;;;2.42;;
19312;SDS011;9791;50.820;4.406;2023-04-01T02:06:10;8.07;;;2.58;;
19312;SDS011;9791;50.820;4.406;2023-04-01T02:08:39;7.45;;;2.65;;
19312;SDS011;9791;50.820;4.406;2023-04-01T02:11:08;5.85;;;2.92;;
19312;SDS011;9791;50.820;4.406;2023-04-01T02:13:37;8.82;;;3.53;;
19312;SDS011;9791;50.820;4.406;2023-04-01T02:16:06;9.35;;;3.45;;
19312;SDS011;9791;50.820;4.406;2023-04-01T02:18:35;6.47;;;3.13;;
19312;SDS011;9791;50.820;4.406;2023-04-01T02:21:03;6.10;;;2.92;;
19312;SDS011;9791;50.820;4.406;2023-04-01T02:23:31;6.63;;;2.90;;
19312;SDS011;9791;50.820;4.406;2023-04-01T02:25:59;6.03;;;4.03;;
19312;SDS011;9791;50.820;4.406;2023-04-01T02:28:25;8.70;;;2.75;;
19312;SDS011;9791;50.820;4.406;2023-04-01T02:30:52;6.72;;;3.00;;
19312;SDS011;9791;50.820;4.406;2023-04-01T02:33:19;6.13;;;2.70;;
19312;SDS011;9791;50.820;4.406;2023-04-01T02:35:46;7.40;;;2.58;;
19312;SDS011;9791;50.820;4.406;2023-04-01T02:38:12;8.52;;;2.75;;
19312;SDS011;9791;50.820;4.406;2023-04-01T02:40:48;13.23;;;3.95;;
19312;SDS011;9791;50.820;4.406;2023-04-01T02:43:14;15.07;;;3.15;;
19312;SDS011;9791;50.820;4.406;2023-04-01T02:45:41;10.23;;;3.97;;
19312;SDS011;9791;50.820;4.406;2023-04-01T02:48:07;8.15;;;2.75;;
19312;SDS011;9791;50.820;4.406;2023-04-01T02:50:33;7.53;;;3.00;;
19312;SDS011;9791;50.820;4.406;2023-04-01T02:53:00;6.93;;;3.03;;
19312;SDS011;9791;50.820;4.406;2023-04-01T02:55:27;7.47;;;3.05;;
19312;SDS011;9791;50.820;4.406;2023-04-01T02:57:53;6.55;;;2.78;;
19312;SDS011;9791;50.820;4.406;2023-04-01T03:00:19;6.03;;;2.80;;
19312;SDS011;9791;50.820;4.406;2023-04-01T03:02:46;10.00;;;3.58;;
19312;SDS011;9791;50.820;4.406;2023-04-01T03:05:12;7.18;;;2.97;;
19312;SDS011;9791;50.820;4.406;2023-04-01T03:07:38;10.00;;;2.80;;
19312;SDS011;9791;50.820;4.406;2023-04-01T03:10:05;6.60;;;2.90;;
19312;SDS011;9791;50.820;4.406;2023-04-01T03:12:31;7.22;;;2.88;;
19312;SDS011;9791;50.820;4.406;2023-04-01T03:14:57;7.97;;;3.10;;
19312;SDS011;9791;50.820;4.406;2023-04-01T03:17:23;10.05;;;3.60;;
19312;SDS011;9791;50.820;4.406;2023-04-01T03:19:49;7.70;;;3.28;;
19312;SDS011;9791;50.820;4.406;2023-04-01T03:22:15;6.75;;;3.17;;
19312;SDS011;9791;50.820;4.406;2023-04-01T03:24:41;7.75;;;3.72;;
19312;SDS011;9791;50.820;4.406;2023-04-01T03:27:07;8.35;;;3.83;;
19312;SDS011;9791;50.820;4.406;2023-04-01T03:29:33;10.07;;;3.40;;
19312;SDS011;9791;50.820;4.406;2023-04-01T03:31:59;7.95;;;3.70;;
19312;SDS011;9791;50.820;4.406;2023-04-01T03:34:25;7.53;;;3.60;;
19312;SDS011;9791;50.820;4.406;2023-04-01T03:36:51;9.77;;;3.83;;
19312;SDS011;9791;50.820;4.406;2023-04-01T03:39:17;8.32;;;4.05;;
19312;SDS011;9791;50.820;4.406;2023-04-01T03:41:45;8.57;;;4.00;;
19312;SDS011;9791;50.820;4.406;2023-04-01T03:44:11;10.65;;;4.50;;
19312;SDS011;9791;50.820;4.406;2023-04-01T03:46:37;11.50;;;4.70;;
19312;SDS011;9791;50.820;4.406;2023-04-01T03:49:06;9.13;;;4.63;;
19312;SDS011;9791;50.820;4.406;2023-04-01T03:51:36;10.57;;;4.65;;
19312;SDS011;9791;50.820;4.406;2023-04-01T03:54:02;15.02;;;5.20;;
19312;SDS011;9791;50.820;4.406;2023-04-01T03:56:28;10.68;;;4.45;;
19312;SDS011;9791;50.820;4.406;2023-04-01T03:58:54;13.07;;;4.72;;
19312;SDS011;9791;50.820;4.406;2023-04-01T04:01:21;14.10;;;5.20;;
19312;SDS011;9791;50.820;4.406;2023-04-01T04:03:48;9.30;;;4.20;;
19312;SDS011;9791;50.820;4.406;2023-04-01T04:06:14;12.80;;;4.63;;
19312;SDS011;9791;50.820;4.406;2023-04-01T04:08:40;11.05;;;4.40;;
19312;SDS011;9791;50.820;4.406;2023-04-01T04:11:07;11.75;;;5.15;;
19312;SDS011;9791;50.820;4.406;2023-04-01T04:13:33;8.32;;;4.10;;
19312;SDS011;9791;50.820;4.406;2023-04-01T04:16:01;9.60;;;4.40;;
19312;SDS011;9791;50.820;4.406;2023-04-01T04:18:27;8.30;;;4.10;;
19312;SDS011;9791;50.820;4.406;2023-04-01T04:20:53;10.88;;;4.20;;
19312;SDS011;9791;50.820;4.406;2023-04-01T04:23:19;10.70;;;4.20;;
19312;SDS011;9791;50.820;4.406;2023-04-01T04:28:20;14.05;;;3.97;;
19312;SDS011;9791;50.820;4.406;2023-04-01T04:30:46;7.65;;;3.63;;
19312;SDS011;9791;50.820;4.406;2023-04-01T04:33:12;7.65;;;3.38;;
19312;SDS011;9791;50.820;4.406;2023-04-01T04:35:38;5.82;;;2.90;;
19312;SDS011;9791;50.820;4.406;2023-04-01T04:38:04;7.13;;;3.15;;
19312;SDS011;9791;50.820;4.406;2023-04-01T04:40:30;9.88;;;3.85;;
19312;SDS011;9791;50.820;4.406;2023-04-01T04:42:56;7.50;;;3.33;;
19312;SDS011;9791;50.820;4.406;2023-04-01T04:45:22;6.13;;;3.30;;
19312;SDS011;9791;50.820;4.406;2023-04-01T04:47:48;7.68;;;3.22;;
19312;SDS011;9791;50.820;4.406;2023-04-01T04:50:15;6.50;;;3.28;;
19312;SDS011;9791;50.820;4.406;2023-04-01T04:52:41;5.20;;;2.80;;
19312;SDS011;9791;50.820;4.406;2023-04-01T04:55:08;5.38;;;2.90;;
19312;SDS011;9791;50.820;4.406;2023-04-01T04:57:34;5.03;;;2.50;;
19312;SDS011;9791;50.820;4.406;2023-04-01T05:00:00;4.78;;;2.30;;
19312;SDS011;9791;50.820;4.406;2023-04-01T05:02:26;6.85;;;2.88;;
19312;SDS011;9791;50.820;4.406;2023-04-01T05:04:52;6.80;;;3.20;;
19312;SDS011;9791;50.820;4.406;2023-04-01T05:07:18;7.10;;;3.08;;
19312;SDS011;9791;50.820;4.406;2023-04-01T05:09:44;5.47;;;2.97;;
19312;SDS011;9791;50.820;4.406;2023-04-01T05:12:10;5.75;;;3.10;;
19312;SDS011;9791;50.820;4.406;2023-04-01T05:14:38;5.95;;;3.17;;
19312;SDS011;9791;50.820;4.406;2023-04-01T05:17:04;7.78;;;2.97;;
19312;SDS011;9791;50.820;4.406;2023-04-01T05:19:30;6.10;;;3.38;;
19312;SDS011;9791;50.820;4.406;2023-04-01T05:21:56;8.43;;;3.45;;
19312;SDS011;9791;50.820;4.406;2023-04-01T05:24:22;8.77;;;3.20;;
19312;SDS011;9791;50.820;4.406;2023-04-01T05:26:48;6.35;;;3.17;;
19312;SDS011;9791;50.820;4.406;2023-04-01T05:29:14;6.07;;;3.15;;
19312;SDS011;9791;50.820;4.406;2023-04-01T05:31:40;8.00;;;3.55;;
19312;SDS011;9791;50.820;4.406;2023-04-01T05:34:06;9.00;;;4.03;;
19312;SDS011;9791;50.820;4.406;2023-04-01T05:36:32;7.65;;;3.60;;
19312;SDS011;9791;50.820;4.406;2023-04-01T05:38:59;8.82;;;4.00;;
19312;SDS011;9791;50.820;4.406;2023-04-01T05:41:25;8.85;;;4.28;;
19312;SDS011;9791;50.820;4.406;2023-04-01T05:43:51;9.18;;;4.20;;
19312;SDS011;9791;50.820;4.406;2023-04-01T05:46:17;9.93;;;4.60;;
19312;SDS011;9791;50.820;4.406;2023-04-01T05:48:44;10.13;;;4.50;;
19312;SDS011;9791;50.820;4.406;2023-04-01T05:51:13;9.00;;;4.25;;
19312;SDS011;9791;50.820;4.406;2023-04-01T05:53:40;11.05;;;4.60;;
19312;SDS011;9791;50.820;4.406;2023-04-01T05:56:07;12.38;;;5.20;;
19312;SDS011;9791;50.820;4.406;2023-04-01T05:58:34;10.15;;;6.07;;
19312;SDS011;9791;50.820;4.406;2023-04-01T06:01:04;9.68;;;5.10;;
19312;SDS011;9791;50.820;4.406;2023-04-01T06:03:30;10.75;;;5.90;;
19312;SDS011;9791;50.820;4.406;2023-04-01T06:05:56;9.85;;;5.30;;
19312;SDS011;9791;50.820;4.406;2023-04-01T06:08:23;8.82;;;5.38;;
19312;SDS011;9791;50.820;4.406;2023-04-01T06:42:43;10.98;;;5.57;;
19312;SDS011;9791;50.820;4.406;2023-04-01T06:47:45;11.25;;;5.25;;
19312;SDS011;9791;50.820;4.406;2023-04-01T06:50:26;10.75;;;5.85;;
19312;SDS011;9791;50.820;4.406;2023-04-01T06:58:03;9.80;;;4.95;;
19312;SDS011;9791;50.820;4.406;2023-04-01T07:00:35;9.55;;;5.15;;
19312;SDS011;9791;50.820;4.406;2023-04-01T07:03:06;12.35;;;4.70;;
19312;SDS011;9791;50.820;4.406;2023-04-01T07:05:36;9.70;;;4.90;;
19312;SDS011;9791;50.820;4.406;2023-04-01T07:08:03;7.65;;;4.35;;
19312;SDS011;9791;50.820;4.406;2023-04-01T07:10:34;8.18;;;3.83;;
19312;SDS011;9791;50.820;4.406;2023-04-01T07:13:03;9.32;;;4.28;;
19312;SDS011;9791;50.820;4.406;2023-04-01T07:15:32;6.65;;;3.60;;
19312;SDS011;9791;50.820;4.406;2023-04-01T07:18:03;6.57;;;3.90;;
19312;SDS011;9791;50.820;4.406;2023-04-01T07:20:35;8.15;;;3.70;;
19312;SDS011;9791;50.820;4.406;2023-04-01T07:23:03;7.25;;;3.17;;
19312;SDS011;9791;50.820;4.406;2023-04-01T07:25:45;4.85;;;2.92;;
19312;SDS011;9791;50.820;4.406;2023-04-01T07:28:13;6.20;;;3.22;;
19312;SDS011;9791;50.820;4.406;2023-04-01T07:33:33;5.80;;;2.90;;
19312;SDS011;9791;50.820;4.406;2023-04-01T07:36:03;5.70;;;2.33;;
19312;SDS011;9791;50.820;4.406;2023-04-01T07:41:23;5.07;;;2.40;;
19312;SDS011;9791;50.820;4.406;2023-04-01T07:48:50;4.22;;;2.33;;
19312;SDS011;9791;50.820;4.406;2023-04-01T07:51:37;7.22;;;2.72;;
19312;SDS011;9791;50.820;4.406;2023-04-01T07:54:12;3.42;;;2.03;;
19312;SDS011;9791;50.820;4.406;2023-04-01T08:06:59;3.00;;;1.35;;
19312;SDS011;9791;50.820;4.406;2023-04-01T08:14:44;3.75;;;1.75;;
19312;SDS011;9791;50.820;4.406;2023-04-01T08:20:08;2.72;;;1.40;;
19312;SDS011;9791;50.820;4.406;2023-04-01T08:22:38;2.00;;;1.15;;
19312;SDS011;9791;50.820;4.406;2023-04-01T08:25:06;3.55;;;1.10;;
19312;SDS011;9791;50.820;4.406;2023-04-01T08:27:45;2.25;;;1.27;;
19312;SDS011;9791;50.820;4.406;2023-04-01T08:30:20;3.95;;;1.25;;
19312;SDS011;9791;50.820;4.406;2023-04-01T08:32:55;2.50;;;1.40;;
19312;SDS011;9791;50.820;4.406;2023-04-01T08:35:38;4.05;;;1.60;;
19312;SDS011;9791;50.820;4.406;2023-04-01T08:38:10;2.72;;;1.40;;
19312;SDS011;9791;50.820;4.406;2023-04-01T08:59:40;1.80;;;1.00;;
19312;SDS011;9791;50.820;4.406;2023-04-01T09:17:51;3.38;;;1.45;;
19312;SDS011;9791;50.820;4.406;2023-04-01T09:20:42;3.85;;;2.35;;
19312;SDS011;9791;50.820;4.406;2023-04-01T09:28:28;3.28;;;1.30;;
19312;SDS011;9791;50.820;4.406;2023-04-01T09:31:07;3.28;;;1.38;;
19312;SDS011;9791;50.820;4.406;2023-04-01T09:36:33;3.63;;;1.30;;
19312;SDS011;9791;50.820;4.406;2023-04-01T09:39:04;3.45;;;1.33;;
19312;SDS011;9791;50.820;4.406;2023-04-01T09:44:28;4.25;;;1.25;;
19312;SDS011;9791;50.820;4.406;2023-04-01T09:49:51;4.05;;;1.38;;
19312;SDS011;9791;50.820;4.406;2023-04-01T09:52:27;2.15;;;1.05;;
19312;SDS011;9791;50.820;4.406;2023-04-01T10:03:02;2.17;;;1.10;;
19312;SDS011;9791;50.820;4.406;2023-04-01T10:42:44;1.95;;;0.93;;
19312;SDS011;9791;50.820;4.406;2023-04-01T10:55:34;3.25;;;1.00;;
19312;SDS011;9791;50.820;4.406;2023-04-01T11:18:44;2.17;;;1.13;;
19312;SDS011;9791;50.820;4.406;2023-04-01T11:38:44;5.60;;;1.48;;
19312;SDS011;9791;50.820;4.406;2023-04-01T11:41:19;3.90;;;1.30;;
19312;SDS011;9791;50.820;4.406;2023-04-01T11:54:28;2.65;;;1.25;;
19312;SDS011;9791;50.820;4.406;2023-04-01T11:59:33;2.88;;;1.20;;
19312;SDS011;9791;50.820;4.406;2023-04-01T12:07:24;2.72;;;1.23;;
19312;SDS011;9791;50.820;4.406;2023-04-01T12:10:06;2.42;;;1.10;;
19312;SDS011;9791;50.820;4.406;2023-04-01T12:25:52;3.30;;;1.40;;
19312;SDS011;9791;50.820;4.406;2023-04-01T12:28:24;3.75;;;1.42;;
19312;SDS011;9791;50.820;4.406;2023-04-01T12:33:26;3.33;;;1.55;;
19312;SDS011;9791;50.820;4.406;2023-04-01T12:52:10;5.35;;;1.90;;
19312;SDS011;9791;50.820;4.406;2023-04-01T12:57:29;3.90;;;1.70;;
19312;SDS011;9791;50.820;4.406;2023-04-01T13:05:32;5.50;;;2.25;;
19312;SDS011;9791;50.820;4.406;2023-04-01T13:08:08;3.70;;;2.08;;
19312;SDS011;9791;50.820;4.406;2023-04-01T13:13:29;4.10;;;1.90;;
19312;SDS011;9791;50.820;4.406;2023-04-01T13:18:32;7.13;;;1.70;;
19312;SDS011;9791;50.820;4.406;2023-04-01T13:23:36;2.55;;;1.42;;
19312;SDS011;9791;50.820;4.406;2023-04-01T13:26:24;3.10;;;1.38;;
19312;SDS011;9791;50.820;4.406;2023-04-01T13:28:55;4.03;;;1.83;;
19312;SDS011;9791;50.820;4.406;2023-04-01T13:34:17;4.72;;;1.67;;
19312;SDS011;9791;50.820;4.406;2023-04-01T13:39:38;4.13;;;1.80;;
19312;SDS011;9791;50.820;4.406;2023-04-01T13:42:31;2.85;;;1.50;;
19312;SDS011;9791;50.820;4.406;2023-04-01T13:58:28;3.28;;;1.52;;
19312;SDS011;9791;50.820;4.406;2023-04-01T14:01:08;3.17;;;1.38;;
19312;SDS011;9791;50.820;4.406;2023-04-01T14:06:40;2.70;;;1.27;;
19312;SDS011;9791;50.820;4.406;2023-04-01T14:09:33;1.75;;;1.00;;
19312;SDS011;9791;50.820;4.406;2023-04-01T14:29:37;4.93;;;1.58;;
19312;SDS011;9791;50.820;4.406;2023-04-01T14:35:14;2.15;;;1.20;;
19312;SDS011;9791;50.820;4.406;2023-04-01T14:37:54;2.15;;;1.00;;
19312;SDS011;9791;50.820;4.406;2023-04-01T14:43:14;2.28;;;1.02;;
19312;SDS011;9791;50.820;4.406;2023-04-01T14:45:55;2.10;;;1.10;;
19312;SDS011;9791;50.820;4.406;2023-04-01T14:51:09;2.60;;;1.23;;
19312;SDS011;9791;50.820;4.406;2023-04-01T14:53:36;2.47;;;1.10;;
19312;SDS011;9791;50.820;4.406;2023-04-01T14:56:04;3.40;;;1.20;;
19312;SDS011;9791;50.820;4.406;2023-04-01T14:58:51;2.05;;;1.10;;
19312;SDS011;9791;50.820;4.406;2023-04-01T15:11:42;3.28;;;1.10;;
19312;SDS011;9791;50.820;4.406;2023-04-01T15:19:31;2.33;;;1.10;;
19312;SDS011;9791;50.820;4.406;2023-04-01T15:22:15;3.85;;;1.15;;
19312;SDS011;9791;50.820;4.406;2023-04-01T15:25:00;3.25;;;1.30;;
19312;SDS011;9791;50.820;4.406;2023-04-01T15:27:42;1.67;;;0.90;;
19312;SDS011;9791;50.820;4.406;2023-04-01T15:40:30;1.88;;;1.00;;
19312;SDS011;9791;50.820;4.406;2023-04-01T15:48:06;2.65;;;1.15;;
19312;SDS011;9791;50.820;4.406;2023-04-01T15:50:46;4.00;;;1.00;;
19312;SDS011;9791;50.820;4.406;2023-04-01T15:58:26;1.90;;;0.88;;
19312;SDS011;9791;50.820;4.406;2023-04-01T16:03:37;3.28;;;1.08;;
19312;SDS011;9791;50.820;4.406;2023-04-01T16:11:23;1.55;;;0.90;;
19312;SDS011;9791;50.820;4.406;2023-04-01T16:21:45;1.63;;;0.95;;
19312;SDS011;9791;50.820;4.406;2023-04-01T16:40:46;2.15;;;1.02;;
19312;SDS011;9791;50.820;4.406;2023-04-01T16:46:07;2.45;;;1.20;;
19312;SDS011;9791;50.820;4.406;2023-04-01T16:51:16;3.53;;;1.45;;
19312;SDS011;9791;50.820;4.406;2023-04-01T16:53:43;3.10;;;1.42;;
19312;SDS011;9791;50.820;4.406;2023-04-01T16:56:16;1.77;;;1.10;;
19312;SDS011;9791;50.820;4.406;2023-04-01T17:01:29;3.65;;;1.30;;
19312;SDS011;9791;50.820;4.406;2023-04-01T17:04:00;4.60;;;1.30;;
19312;SDS011;9791;50.820;4.406;2023-04-01T17:06:47;2.97;;;1.30;;
19312;SDS011;9791;50.820;4.406;2023-04-01T17:17:09;3.22;;;1.50;;
19312;SDS011;9791;50.820;4.406;2023-04-01T17:19:42;2.70;;;1.23;;
19312;SDS011;9791;50.820;4.406;2023-04-01T17:27:57;3.22;;;1.45;;
19312;SDS011;9791;50.820;4.406;2023-04-01T17:54:20;3.28;;;1.90;;
19312;SDS011;9791;50.820;4.406;2023-04-01T18:21:01;6.00;;;2.40;;
19312;SDS011;9791;50.820;4.406;2023-04-01T18:26:04;5.80;;;2.55;;
19312;SDS011;9791;50.820;4.406;2023-04-01T18:28:32;5.97;;;2.47;;
19312;SDS011;9791;50.820;4.406;2023-04-01T18:35:58;6.10;;;3.17;;
19312;SDS011;9791;50.820;4.406;2023-04-01T18:38:30;5.28;;;3.20;;
19312;SDS011;9791;50.820;4.406;2023-04-01T18:51:26;5.60;;;3.45;;
19312;SDS011;9791;50.820;4.406;2023-04-01T18:54:02;5.50;;;2.95;;
19312;SDS011;9791;50.820;4.406;2023-04-01T18:56:37;5.20;;;3.15;;
19312;SDS011;9791;50.820;4.406;2023-04-01T19:04:33;6.57;;;3.70;;
19312;SDS011;9791;50.820;4.406;2023-04-01T19:07:25;7.63;;;4.57;;
19312;SDS011;9791;50.820;4.406;2023-04-01T19:09:58;8.05;;;4.38;;
19312;SDS011;9791;50.820;4.406;2023-04-01T19:25:48;9.00;;;6.32;;
19312;SDS011;9791;50.820;4.406;2023-04-01T19:28:20;9.93;;;7.07;;
19312;SDS011;9791;50.820;4.406;2023-04-01T19:33:23;11.52;;;7.75;;
19312;SDS011;9791;50.820;4.406;2023-04-01T19:36:15;14.07;;;8.93;;
19312;SDS011;9791;50.820;4.406;2023-04-01T19:38:55;12.57;;;8.70;;
19312;SDS011;9791;50.820;4.406;2023-04-01T19:51:35;14.82;;;9.35;;
19312;SDS011;9791;50.820;4.406;2023-04-01T19:59:22;13.68;;;9.45;;
19312;SDS011;9791;50.820;4.406;2023-04-01T20:01:58;14.38;;;8.32;;
19312;SDS011;9791;50.820;4.406;2023-04-01T20:04:39;15.60;;;8.35;;
19312;SDS011;9791;50.820;4.406;2023-04-01T20:07:09;12.23;;;7.53;;
19312;SDS011;9791;50.820;4.406;2023-04-01T20:12:38;12.63;;;7.47;;
19312;SDS011;9791;50.820;4.406;2023-04-01T20:17:53;11.25;;;7.60;;
19312;SDS011;9791;50.820;4.406;2023-04-01T20:20:22;18.20;;;8.50;;
19312;SDS011;9791;50.820;4.406;2023-04-01T20:22:55;12.25;;;7.82;;
19312;SDS011;9791;50.820;4.406;2023-04-01T20:28:11;10.65;;;6.88;;
19312;SDS011;9791;50.820;4.406;2023-04-01T20:44:08;14.88;;;8.55;;
19312;SDS011;9791;50.820;4.406;2023-04-01T20:49:14;14.90;;;8.25;;
19312;SDS011;9791;50.820;4.406;2023-04-01T20:51:47;14.20;;;8.75;;
19312;SDS011;9791;50.820;4.406;2023-04-01T20:59:41;13.48;;;8.55;;
19312;SDS011;9791;50.820;4.406;2023-04-01T21:02:23;13.52;;;8.52;;
19312;SDS011;9791;50.820;4.406;2023-04-01T21:10:02;11.45;;;7.50;;
19312;SDS011;9791;50.820;4.406;2023-04-01T21:18:09;13.43;;;8.90;;
19312;SDS011;9791;50.820;4.406;2023-04-01T21:26:36;10.90;;;8.35;;
19312;SDS011;9791;50.820;4.406;2023-04-01T21:29:19;12.25;;;8.38;;
19312;SDS011;9791;50.820;4.406;2023-04-01T21:32:12;13.48;;;8.98;;
19312;SDS011;9791;50.820;4.406;2023-04-01T21:34:43;12.68;;;8.10;;
19312;SDS011;9791;50.820;4.406;2023-04-01T21:37:14;12.85;;;8.25;;
19312;SDS011;9791;50.820;4.406;2023-04-01T21:39:48;15.85;;;9.77;;
19312;SDS011;9791;50.820;4.406;2023-04-01T21:42:22;15.35;;;9.35;;
19312;SDS011;9791;50.820;4.406;2023-04-01T22:03:36;12.25;;;8.00;;
19312;SDS011;9791;50.820;4.406;2023-04-01T22:06:06;12.15;;;7.82;;
19312;SDS011;9791;50.820;4.406;2023-04-01T22:08:45;9.93;;;7.32;;
19312;SDS011;9791;50.820;4.406;2023-04-01T22:14:15;11.05;;;7.70;;
19312;SDS011;9791;50.820;4.406;2023-04-01T22:16:48;12.57;;;8.40;;
19312;SDS011;9791;50.820;4.406;2023-04-01T22:29:30;13.73;;;8.73;;
19312;SDS011;9791;50.820;4.406;2023-04-01T22:32:05;11.88;;;8.35;;
19312;SDS011;9791;50.820;4.406;2023-04-01T22:45:14;11.98;;;9.88;;
19312;SDS011;9791;50.820;4.406;2023-04-01T22:50:20;13.63;;;10.32;;
19312;SDS011;9791;50.820;4.406;2023-04-01T22:52:49;16.88;;;11.50;;
19312;SDS011;9791;50.820;4.406;2023-04-01T22:57:58;14.43;;;11.25;;
19312;SDS011;9791;50.820;4.406;2023-04-01T23:00:26;15.38;;;11.38;;
19312;SDS011;9791;50.820;4.406;2023-04-01T23:05:49;18.00;;;11.73;;
19312;SDS011;9791;50.820;4.406;2023-04-01T23:10:52;14.32;;;11.27;;
19312;SDS011;9791;50.820;4.406;2023-04-01T23:13:22;13.88;;;10.75;;
19312;SDS011;9791;50.820;4.406;2023-04-01T23:15:51;13.23;;;10.63;;
19312;SDS011;9791;50.820;4.406;2023-04-01T23:25:56;13.60;;;9.75;;
19312;SDS011;9791;50.820;4.406;2023-04-01T23:30:58;12.20;;;10.10;;
19312;SDS011;9791;50.820;4.406;2023-04-01T23:33:28;13.82;;;10.18;;
19312;SDS011;9791;50.820;4.406;2023-04-01T23:35:56;13.02;;;10.27;;
19312;SDS011;9791;50.820;4.406;2023-04-01T23:38:30;14.18;;;11.15;;
19312;SDS011;9791;50.820;4.406;2023-04-01T23:40:57;13.02;;;10.02;;
19312;SDS011;9791;50.820;4.406;2023-04-01T23:43:39;13.73;;;10.73;;
19312;SDS011;9791;50.820;4.406;2023-04-01T23:46:06;12.82;;;10.07;;
19312;SDS011;9791;50.820;4.406;2023-04-01T23:48:35;13.25;;;9.90;;
19312;SDS011;9791;50.820;4.406;2023-04-01T23:51:02;13.15;;;10.27;;
19312;SDS011;9791;50.820;4.406;2023-04-01T23:53:34;13.98;;;10.73;;
19312;SDS011;9791;50.820;4.406;2023-04-01T23:56:01;15.52;;;10.70;;
